sensor_id;sensor_type;location;lat;lon;timestamp;temperature;humidity
40153;DHT22;26371;56.992;23.912;2022-07-01T00:00:09;23.70;99.90
40153;DHT22;26371;56.992;23.912;2022-07-01T00:02:41;23.70;99.90
40153;DHT22;26371;56.992;23.912;2022-07-01T00:05:11;23.70;99.90
40153;DHT22;26371;56.992;23.912;2022-07-01T00:07:46;23.70;99.90
40153;DHT22;26371;56.992;23.912;2022-07-01T00:10:16;23.70;99.90
40153;DHT22;26371;56.992;23.912;2022-07-01T00:12:48;23.60;99.90
40153;DHT22;26371;56.992;23.912;2022-07-01T00:15:18;23.60;99.90
40153;DHT22;26371;56.992;23.912;2022-07-01T00:17:47;23.60;99.90
40153;DHT22;26371;56.992;23.912;2022-07-01T00:20:17;23.60;99.90
40153;DHT22;26371;56.992;23.912;2022-07-01T00:22:46;23.60;99.90
40153;DHT22;26371;56.992;23.912;2022-07-01T00:25:16;23.60;99.90
40153;DHT22;26371;56.992;23.912;2022-07-01T00:27:45;23.60;99.90
40153;DHT22;26371;56.992;23.912;2022-07-01T00:30:16;23.60;99.90
40153;DHT22;26371;56.992;23.912;2022-07-01T00:32:45;23.60;99.90
40153;DHT22;26371;56.992;23.912;2022-07-01T00:35:16;23.60;99.90
40153;DHT22;26371;56.992;23.912;2022-07-01T00:37:45;23.50;99.90
40153;DHT22;26371;56.992;23.912;2022-07-01T00:40:14;23.60;99.90
40153;DHT22;26371;56.992;23.912;2022-07-01T00:42:43;23.50;99.90
40153;DHT22;26371;56.992;23.912;2022-07-01T00:45:13;23.50;99.90
40153;DHT22;26371;56.992;23.912;2022-07-01T00:47:44;23.50;99.90
40153;DHT22;26371;56.992;23.912;2022-07-01T00:50:14;23.50;99.90
40153;DHT22;26371;56.992;23.912;2022-07-01T00:52:44;23.50;99.90
40153;DHT22;26371;56.992;23.912;2022-07-01T00:55:15;23.50;99.90
40153;DHT22;26371;56.992;23.912;2022-07-01T00:57:44;23.50;99.90
40153;DHT22;26371;56.992;23.912;2022-07-01T01:00:17;23.50;99.90
40153;DHT22;26371;56.992;23.912;2022-07-01T01:02:49;23.50;99.90
40153;DHT22;26371;56.992;23.912;2022-07-01T01:05:18;23.50;99.90
40153;DHT22;26371;56.992;23.912;2022-07-01T01:07:48;23.50;99.90
40153;DHT22;26371;56.992;23.912;2022-07-01T01:10:19;23.50;99.90
40153;DHT22;26371;56.992;23.912;2022-07-01T01:12:50;23.40;99.90
40153;DHT22;26371;56.992;23.912;2022-07-01T01:15:20;23.40;99.90
40153;DHT22;26371;56.992;23.912;2022-07-01T01:17:50;23.40;99.90
40153;DHT22;26371;56.992;23.912;2022-07-01T01:20:21;23.40;99.90
40153;DHT22;26371;56.992;23.912;2022-07-01T01:22:51;23.40;99.90
40153;DHT22;26371;56.992;23.912;2022-07-01T01:25:21;23.40;99.90
40153;DHT22;26371;56.992;23.912;2022-07-01T01:27:50;23.40;99.90
40153;DHT22;26371;56.992;23.912;2022-07-01T01:30:18;23.40;99.90
40153;DHT22;26371;56.992;23.912;2022-07-01T01:32:47;23.40;99.90
40153;DHT22;26371;56.992;23.912;2022-07-01T01:35:17;23.40;99.90
40153;DHT22;26371;56.992;23.912;2022-07-01T01:37:46;23.40;99.90
40153;DHT22;26371;56.992;23.912;2022-07-01T01:40:18;23.40;99.90
40153;DHT22;26371;56.992;23.912;2022-07-01T01:42:47;23.40;99.90
40153;DHT22;26371;56.992;23.912;2022-07-01T01:45:15;23.30;99.90
40153;DHT22;26371;56.992;23.912;2022-07-01T01:47:45;23.30;99.90
40153;DHT22;26371;56.992;23.912;2022-07-01T01:50:14;23.30;99.90
40153;DHT22;26371;56.992;23.912;2022-07-01T01:52:44;23.30;99.90
40153;DHT22;26371;56.992;23.912;2022-07-01T01:55:13;23.30;99.90
40153;DHT22;26371;56.992;23.912;2022-07-01T01:57:43;23.30;99.90
40153;DHT22;26371;56.992;23.912;2022-07-01T02:00:13;23.40;99.90
40153;DHT22;26371;56.992;23.912;2022-07-01T02:02:43;23.30;99.90
40153;DHT22;26371;56.992;23.912;2022-07-01T02:05:13;23.30;99.90
40153;DHT22;26371;56.992;23.912;2022-07-01T02:07:42;23.30;99.90
40153;DHT22;26371;56.992;23.912;2022-07-01T02:10:12;23.30;99.90
40153;DHT22;26371;56.992;23.912;2022-07-01T02:12:46;23.30;99.90
40153;DHT22;26371;56.992;23.912;2022-07-01T02:15:17;23.30;99.90
40153;DHT22;26371;56.992;23.912;2022-07-01T02:17:48;23.30;99.90
40153;DHT22;26371;56.992;23.912;2022-07-01T02:20:25;23.30;99.90
40153;DHT22;26371;56.992;23.912;2022-07-01T02:23:03;23.30;99.90
40153;DHT22;26371;56.992;23.912;2022-07-01T02:25:34;23.30;99.90
40153;DHT22;26371;56.992;23.912;2022-07-01T02:28:07;23.30;99.90
40153;DHT22;26371;56.992;23.912;2022-07-01T02:30:36;23.30;99.90
40153;DHT22;26371;56.992;23.912;2022-07-01T02:33:06;23.30;99.90
40153;DHT22;26371;56.992;23.912;2022-07-01T02:35:37;23.40;99.90
40153;DHT22;26371;56.992;23.912;2022-07-01T02:38:07;23.40;99.90
40153;DHT22;26371;56.992;23.912;2022-07-01T02:40:36;23.40;99.90
40153;DHT22;26371;56.992;23.912;2022-07-01T02:43:09;23.40;99.90
40153;DHT22;26371;56.992;23.912;2022-07-01T02:45:38;23.40;99.90
40153;DHT22;26371;56.992;23.912;2022-07-01T02:48:07;23.40;99.90
40153;DHT22;26371;56.992;23.912;2022-07-01T02:50:36;23.40;99.90
40153;DHT22;26371;56.992;23.912;2022-07-01T02:53:05;23.40;99.90
40153;DHT22;26371;56.992;23.912;2022-07-01T02:55:34;23.50;99.90
40153;DHT22;26371;56.992;23.912;2022-07-01T02:58:05;23.40;99.90
40153;DHT22;26371;56.992;23.912;2022-07-01T03:00:35;23.50;99.90
40153;DHT22;26371;56.992;23.912;2022-07-01T03:03:04;23.50;99.90
40153;DHT22;26371;56.992;23.912;2022-07-01T03:05:33;23.50;99.90
40153;DHT22;26371;56.992;23.912;2022-07-01T03:08:02;23.50;99.90
40153;DHT22;26371;56.992;23.912;2022-07-01T03:10:32;23.50;99.90
40153;DHT22;26371;56.992;23.912;2022-07-01T03:13:01;23.50;99.90
40153;DHT22;26371;56.992;23.912;2022-07-01T03:15:30;23.50;99.90
40153;DHT22;26371;56.992;23.912;2022-07-01T03:18:32;23.50;99.90
40153;DHT22;26371;56.992;23.912;2022-07-01T03:21:28;23.40;99.90
40153;DHT22;26371;56.992;23.912;2022-07-01T03:24:00;23.40;99.90
40153;DHT22;26371;56.992;23.912;2022-07-01T03:26:29;23.40;99.90
40153;DHT22;26371;56.992;23.912;2022-07-01T03:29:05;23.40;99.90
40153;DHT22;26371;56.992;23.912;2022-07-01T03:31:34;23.40;99.90
40153;DHT22;26371;56.992;23.912;2022-07-01T03:34:05;23.50;99.90
40153;DHT22;26371;56.992;23.912;2022-07-01T03:36:34;23.50;99.90
40153;DHT22;26371;56.992;23.912;2022-07-01T03:39:03;23.50;99.90
40153;DHT22;26371;56.992;23.912;2022-07-01T03:41:33;23.50;99.90
40153;DHT22;26371;56.992;23.912;2022-07-01T03:44:02;23.50;99.90
40153;DHT22;26371;56.992;23.912;2022-07-01T03:50:37;23.50;99.90
40153;DHT22;26371;56.992;23.912;2022-07-01T03:53:07;23.40;99.90
40153;DHT22;26371;56.992;23.912;2022-07-01T03:55:53;23.40;99.90
40153;DHT22;26371;56.992;23.912;2022-07-01T03:58:22;23.40;99.90
40153;DHT22;26371;56.992;23.912;2022-07-01T04:00:51;23.40;99.90
40153;DHT22;26371;56.992;23.912;2022-07-01T04:03:21;23.40;99.90
40153;DHT22;26371;56.992;23.912;2022-07-01T04:05:52;23.40;99.90
40153;DHT22;26371;56.992;23.912;2022-07-01T04:08:21;23.50;99.90
40153;DHT22;26371;56.992;23.912;2022-07-01T04:10:51;23.50;99.90
40153;DHT22;26371;56.992;23.912;2022-07-01T04:13:22;23.60;99.90
40153;DHT22;26371;56.992;23.912;2022-07-01T04:15:59;23.60;99.90
40153;DHT22;26371;56.992;23.912;2022-07-01T04:18:30;23.70;99.90
40153;DHT22;26371;56.992;23.912;2022-07-01T04:21:01;23.70;99.90
40153;DHT22;26371;56.992;23.912;2022-07-01T04:23:50;23.80;99.90
40153;DHT22;26371;56.992;23.912;2022-07-01T04:26:20;23.90;99.90
40153;DHT22;26371;56.992;23.912;2022-07-01T04:29:05;24.00;99.90
40153;DHT22;26371;56.992;23.912;2022-07-01T04:31:35;24.10;99.90
40153;DHT22;26371;56.992;23.912;2022-07-01T04:34:06;24.10;99.90
40153;DHT22;26371;56.992;23.912;2022-07-01T04:36:37;24.20;99.90
40153;DHT22;26371;56.992;23.912;2022-07-01T04:39:07;24.20;99.90
40153;DHT22;26371;56.992;23.912;2022-07-01T04:41:37;24.30;99.90
40153;DHT22;26371;56.992;23.912;2022-07-01T04:44:25;24.30;99.90
40153;DHT22;26371;56.992;23.912;2022-07-01T04:46:55;24.30;99.90
40153;DHT22;26371;56.992;23.912;2022-07-01T04:49:24;24.30;99.90
40153;DHT22;26371;56.992;23.912;2022-07-01T04:51:55;24.30;99.90
40153;DHT22;26371;56.992;23.912;2022-07-01T04:54:25;24.30;99.90
40153;DHT22;26371;56.992;23.912;2022-07-01T04:56:54;24.30;99.90
40153;DHT22;26371;56.992;23.912;2022-07-01T04:59:23;24.30;99.90
40153;DHT22;26371;56.992;23.912;2022-07-01T05:01:52;24.30;99.90
40153;DHT22;26371;56.992;23.912;2022-07-01T05:04:21;24.20;99.90
40153;DHT22;26371;56.992;23.912;2022-07-01T05:06:51;24.20;99.90
40153;DHT22;26371;56.992;23.912;2022-07-01T05:09:22;24.20;99.90
40153;DHT22;26371;56.992;23.912;2022-07-01T05:11:53;24.30;99.90
40153;DHT22;26371;56.992;23.912;2022-07-01T05:14:23;24.30;99.90
40153;DHT22;26371;56.992;23.912;2022-07-01T05:16:52;24.40;99.90
40153;DHT22;26371;56.992;23.912;2022-07-01T05:19:21;24.60;99.90
40153;DHT22;26371;56.992;23.912;2022-07-01T05:22:08;24.60;99.90
40153;DHT22;26371;56.992;23.912;2022-07-01T05:24:39;24.70;99.90
40153;DHT22;26371;56.992;23.912;2022-07-01T05:27:08;24.80;99.90
40153;DHT22;26371;56.992;23.912;2022-07-01T05:29:38;24.80;99.90
40153;DHT22;26371;56.992;23.912;2022-07-01T05:32:07;24.80;99.90
40153;DHT22;26371;56.992;23.912;2022-07-01T05:34:36;24.90;99.90
40153;DHT22;26371;56.992;23.912;2022-07-01T05:37:08;25.00;99.90
40153;DHT22;26371;56.992;23.912;2022-07-01T05:39:39;25.10;99.90
40153;DHT22;26371;56.992;23.912;2022-07-01T05:42:17;25.10;99.90
40153;DHT22;26371;56.992;23.912;2022-07-01T05:44:46;25.10;99.90
40153;DHT22;26371;56.992;23.912;2022-07-01T05:47:15;25.10;99.90
40153;DHT22;26371;56.992;23.912;2022-07-01T05:49:45;25.20;99.90
40153;DHT22;26371;56.992;23.912;2022-07-01T05:52:14;25.30;99.90
40153;DHT22;26371;56.992;23.912;2022-07-01T05:54:44;25.40;99.90
40153;DHT22;26371;56.992;23.912;2022-07-01T05:57:13;25.30;99.90
40153;DHT22;26371;56.992;23.912;2022-07-01T05:59:43;25.20;99.90
40153;DHT22;26371;56.992;23.912;2022-07-01T06:02:12;25.10;99.90
40153;DHT22;26371;56.992;23.912;2022-07-01T06:04:41;25.10;99.90
40153;DHT22;26371;56.992;23.912;2022-07-01T06:07:11;25.00;99.90
40153;DHT22;26371;56.992;23.912;2022-07-01T06:09:40;25.00;99.90
40153;DHT22;26371;56.992;23.912;2022-07-01T06:12:10;25.00;99.90
40153;DHT22;26371;56.992;23.912;2022-07-01T06:14:39;25.00;99.90
40153;DHT22;26371;56.992;23.912;2022-07-01T06:17:09;25.00;99.90
40153;DHT22;26371;56.992;23.912;2022-07-01T06:19:37;24.90;99.90
40153;DHT22;26371;56.992;23.912;2022-07-01T06:22:07;24.90;99.90
40153;DHT22;26371;56.992;23.912;2022-07-01T06:24:36;24.90;99.90
40153;DHT22;26371;56.992;23.912;2022-07-01T06:27:07;24.90;99.90
40153;DHT22;26371;56.992;23.912;2022-07-01T06:29:36;24.90;99.90
40153;DHT22;26371;56.992;23.912;2022-07-01T06:32:07;24.90;99.90
40153;DHT22;26371;56.992;23.912;2022-07-01T06:34:36;24.90;99.90
40153;DHT22;26371;56.992;23.912;2022-07-01T06:37:07;24.90;99.90
40153;DHT22;26371;56.992;23.912;2022-07-01T06:39:36;24.90;99.90
40153;DHT22;26371;56.992;23.912;2022-07-01T06:42:06;25.00;99.90
40153;DHT22;26371;56.992;23.912;2022-07-01T06:44:37;25.10;99.90
40153;DHT22;26371;56.992;23.912;2022-07-01T06:47:07;25.20;99.90
40153;DHT22;26371;56.992;23.912;2022-07-01T06:49:36;25.30;99.90
40153;DHT22;26371;56.992;23.912;2022-07-01T06:52:06;25.50;99.90
40153;DHT22;26371;56.992;23.912;2022-07-01T06:54:36;25.70;99.90
40153;DHT22;26371;56.992;23.912;2022-07-01T06:57:07;25.80;99.90
40153;DHT22;26371;56.992;23.912;2022-07-01T06:59:38;25.90;99.90
40153;DHT22;26371;56.992;23.912;2022-07-01T07:02:08;26.00;99.90
40153;DHT22;26371;56.992;23.912;2022-07-01T07:04:37;26.10;99.90
40153;DHT22;26371;56.992;23.912;2022-07-01T07:07:26;26.10;99.90
40153;DHT22;26371;56.992;23.912;2022-07-01T07:09:55;26.10;99.90
40153;DHT22;26371;56.992;23.912;2022-07-01T07:12:24;26.20;99.90
40153;DHT22;26371;56.992;23.912;2022-07-01T07:14:55;26.30;99.90
40153;DHT22;26371;56.992;23.912;2022-07-01T07:17:24;26.30;99.90
40153;DHT22;26371;56.992;23.912;2022-07-01T07:19:53;26.30;99.90
40153;DHT22;26371;56.992;23.912;2022-07-01T07:22:24;26.40;99.90
40153;DHT22;26371;56.992;23.912;2022-07-01T07:24:53;26.40;99.90
40153;DHT22;26371;56.992;23.912;2022-07-01T07:27:23;26.50;99.90
40153;DHT22;26371;56.992;23.912;2022-07-01T07:29:51;26.50;99.90
40153;DHT22;26371;56.992;23.912;2022-07-01T07:32:22;26.70;99.90
40153;DHT22;26371;56.992;23.912;2022-07-01T07:34:55;26.70;99.90
40153;DHT22;26371;56.992;23.912;2022-07-01T07:37:23;26.80;99.90
40153;DHT22;26371;56.992;23.912;2022-07-01T07:39:53;26.80;99.90
40153;DHT22;26371;56.992;23.912;2022-07-01T07:42:22;26.80;99.90
40153;DHT22;26371;56.992;23.912;2022-07-01T07:44:51;26.90;99.90
40153;DHT22;26371;56.992;23.912;2022-07-01T07:47:22;27.00;99.90
40153;DHT22;26371;56.992;23.912;2022-07-01T07:49:54;27.00;99.90
40153;DHT22;26371;56.992;23.912;2022-07-01T07:52:23;27.00;99.90
40153;DHT22;26371;56.992;23.912;2022-07-01T07:54:52;27.10;99.90
40153;DHT22;26371;56.992;23.912;2022-07-01T07:57:21;27.00;99.90
40153;DHT22;26371;56.992;23.912;2022-07-01T07:59:50;27.10;99.90
40153;DHT22;26371;56.992;23.912;2022-07-01T08:02:22;27.20;99.90
40153;DHT22;26371;56.992;23.912;2022-07-01T08:04:54;27.30;99.90
40153;DHT22;26371;56.992;23.912;2022-07-01T08:07:23;27.50;99.90
40153;DHT22;26371;56.992;23.912;2022-07-01T08:09:52;27.60;99.90
40153;DHT22;26371;56.992;23.912;2022-07-01T08:12:21;27.80;99.90
40153;DHT22;26371;56.992;23.912;2022-07-01T08:14:53;27.90;99.90
40153;DHT22;26371;56.992;23.912;2022-07-01T08:17:23;28.00;99.90
40153;DHT22;26371;56.992;23.912;2022-07-01T08:19:53;28.10;99.90
40153;DHT22;26371;56.992;23.912;2022-07-01T08:22:22;28.20;99.90
40153;DHT22;26371;56.992;23.912;2022-07-01T08:24:51;28.20;99.90
40153;DHT22;26371;56.992;23.912;2022-07-01T08:27:20;28.40;99.90
40153;DHT22;26371;56.992;23.912;2022-07-01T08:29:49;28.50;99.90
40153;DHT22;26371;56.992;23.912;2022-07-01T08:32:18;28.60;99.90
40153;DHT22;26371;56.992;23.912;2022-07-01T08:34:51;28.70;99.90
40153;DHT22;26371;56.992;23.912;2022-07-01T08:37:20;28.80;99.90
40153;DHT22;26371;56.992;23.912;2022-07-01T08:39:49;28.70;99.90
40153;DHT22;26371;56.992;23.912;2022-07-01T08:42:18;28.80;99.90
40153;DHT22;26371;56.992;23.912;2022-07-01T08:44:48;28.90;99.90
40153;DHT22;26371;56.992;23.912;2022-07-01T08:47:17;29.00;99.90
40153;DHT22;26371;56.992;23.912;2022-07-01T08:49:46;29.10;99.90
40153;DHT22;26371;56.992;23.912;2022-07-01T08:52:17;29.10;99.90
40153;DHT22;26371;56.992;23.912;2022-07-01T08:54:46;29.10;99.90
40153;DHT22;26371;56.992;23.912;2022-07-01T08:57:20;29.00;99.90
40153;DHT22;26371;56.992;23.912;2022-07-01T09:00:02;29.00;99.90
40153;DHT22;26371;56.992;23.912;2022-07-01T09:02:50;28.90;99.90
40153;DHT22;26371;56.992;23.912;2022-07-01T09:05:20;28.90;99.90
40153;DHT22;26371;56.992;23.912;2022-07-01T09:07:56;28.90;99.90
40153;DHT22;26371;56.992;23.912;2022-07-01T09:10:28;29.10;99.90
40153;DHT22;26371;56.992;23.912;2022-07-01T09:13:05;29.30;99.90
40153;DHT22;26371;56.992;23.912;2022-07-01T09:15:41;29.40;99.60
40153;DHT22;26371;56.992;23.912;2022-07-01T09:18:13;29.50;99.30
40153;DHT22;26371;56.992;23.912;2022-07-01T09:20:45;29.70;99.20
40153;DHT22;26371;56.992;23.912;2022-07-01T09:23:19;29.90;99.20
40153;DHT22;26371;56.992;23.912;2022-07-01T09:25:50;30.10;98.50
40153;DHT22;26371;56.992;23.912;2022-07-01T09:28:24;30.40;98.40
40153;DHT22;26371;56.992;23.912;2022-07-01T09:30:55;30.20;97.90
40153;DHT22;26371;56.992;23.912;2022-07-01T09:33:26;30.10;97.40
40153;DHT22;26371;56.992;23.912;2022-07-01T09:35:56;30.00;98.80
40153;DHT22;26371;56.992;23.912;2022-07-01T09:38:28;30.00;98.50
40153;DHT22;26371;56.992;23.912;2022-07-01T09:41:00;30.10;98.40
40153;DHT22;26371;56.992;23.912;2022-07-01T09:43:31;30.30;98.70
40153;DHT22;26371;56.992;23.912;2022-07-01T09:46:03;30.30;98.20
40153;DHT22;26371;56.992;23.912;2022-07-01T09:48:43;30.20;98.20
40153;DHT22;26371;56.992;23.912;2022-07-01T09:51:14;30.20;98.60
40153;DHT22;26371;56.992;23.912;2022-07-01T09:53:45;30.10;98.40
40153;DHT22;26371;56.992;23.912;2022-07-01T09:56:14;30.10;99.20
40153;DHT22;26371;56.992;23.912;2022-07-01T09:58:43;30.20;99.00
40153;DHT22;26371;56.992;23.912;2022-07-01T10:01:14;30.30;98.90
40153;DHT22;26371;56.992;23.912;2022-07-01T10:03:44;30.20;99.00
40153;DHT22;26371;56.992;23.912;2022-07-01T10:06:31;30.20;99.30
40153;DHT22;26371;56.992;23.912;2022-07-01T10:09:12;30.20;99.10
40153;DHT22;26371;56.992;23.912;2022-07-01T10:12:00;30.20;98.90
40153;DHT22;26371;56.992;23.912;2022-07-01T10:14:37;30.10;98.80
40153;DHT22;26371;56.992;23.912;2022-07-01T10:17:08;30.10;98.80
40153;DHT22;26371;56.992;23.912;2022-07-01T10:19:37;30.00;99.10
40153;DHT22;26371;56.992;23.912;2022-07-01T10:22:24;30.10;99.30
40153;DHT22;26371;56.992;23.912;2022-07-01T10:24:56;30.20;99.40
40153;DHT22;26371;56.992;23.912;2022-07-01T10:27:45;30.40;99.10
40153;DHT22;26371;56.992;23.912;2022-07-01T10:30:15;30.60;99.30
40153;DHT22;26371;56.992;23.912;2022-07-01T10:32:47;30.80;98.70
40153;DHT22;26371;56.992;23.912;2022-07-01T10:35:36;30.90;98.60
40153;DHT22;26371;56.992;23.912;2022-07-01T10:38:11;31.00;98.50
40153;DHT22;26371;56.992;23.912;2022-07-01T10:40:47;31.00;98.60
40153;DHT22;26371;56.992;23.912;2022-07-01T10:43:17;31.10;98.50
40153;DHT22;26371;56.992;23.912;2022-07-01T10:45:59;31.10;98.20
40153;DHT22;26371;56.992;23.912;2022-07-01T10:48:32;31.10;98.20
40153;DHT22;26371;56.992;23.912;2022-07-01T10:51:02;31.20;98.50
40153;DHT22;26371;56.992;23.912;2022-07-01T10:53:45;31.30;98.10
40153;DHT22;26371;56.992;23.912;2022-07-01T10:56:38;31.40;98.20
40153;DHT22;26371;56.992;23.912;2022-07-01T10:59:13;31.40;97.90
40153;DHT22;26371;56.992;23.912;2022-07-01T11:01:45;31.40;97.70
40153;DHT22;26371;56.992;23.912;2022-07-01T11:04:14;31.50;97.90
40153;DHT22;26371;56.992;23.912;2022-07-01T11:06:43;31.40;97.70
40153;DHT22;26371;56.992;23.912;2022-07-01T11:09:13;31.40;97.10
40153;DHT22;26371;56.992;23.912;2022-07-01T11:11:43;31.20;97.20
40153;DHT22;26371;56.992;23.912;2022-07-01T11:14:13;31.10;96.30
40153;DHT22;26371;56.992;23.912;2022-07-01T11:16:49;31.00;97.10
40153;DHT22;26371;56.992;23.912;2022-07-01T11:19:18;30.90;97.10
40153;DHT22;26371;56.992;23.912;2022-07-01T11:21:48;30.80;97.20
40153;DHT22;26371;56.992;23.912;2022-07-01T11:24:18;30.80;97.60
40153;DHT22;26371;56.992;23.912;2022-07-01T11:26:49;30.90;97.80
40153;DHT22;26371;56.992;23.912;2022-07-01T11:29:25;30.90;97.50
40153;DHT22;26371;56.992;23.912;2022-07-01T11:31:54;30.80;97.00
40153;DHT22;26371;56.992;23.912;2022-07-01T11:34:29;30.80;97.50
40153;DHT22;26371;56.992;23.912;2022-07-01T11:36:58;30.80;97.10
40153;DHT22;26371;56.992;23.912;2022-07-01T11:40:04;30.80;97.20
40153;DHT22;26371;56.992;23.912;2022-07-01T11:42:35;30.80;97.10
40153;DHT22;26371;56.992;23.912;2022-07-01T11:45:22;30.80;96.80
40153;DHT22;26371;56.992;23.912;2022-07-01T11:47:53;30.80;96.80
40153;DHT22;26371;56.992;23.912;2022-07-01T11:50:22;30.80;96.70
40153;DHT22;26371;56.992;23.912;2022-07-01T11:52:53;30.90;97.10
40153;DHT22;26371;56.992;23.912;2022-07-01T11:55:24;30.90;96.60
40153;DHT22;26371;56.992;23.912;2022-07-01T11:58:06;30.90;96.70
40153;DHT22;26371;56.992;23.912;2022-07-01T12:00:35;31.00;96.90
40153;DHT22;26371;56.992;23.912;2022-07-01T12:03:05;31.10;96.50
40153;DHT22;26371;56.992;23.912;2022-07-01T12:05:35;31.10;97.00
40153;DHT22;26371;56.992;23.912;2022-07-01T12:08:04;31.10;96.90
40153;DHT22;26371;56.992;23.912;2022-07-01T12:10:34;31.20;96.60
40153;DHT22;26371;56.992;23.912;2022-07-01T12:13:22;31.20;96.90
40153;DHT22;26371;56.992;23.912;2022-07-01T12:15:51;31.30;96.90
40153;DHT22;26371;56.992;23.912;2022-07-01T12:18:19;31.30;96.70
40153;DHT22;26371;56.992;23.912;2022-07-01T12:20:53;31.30;96.70
40153;DHT22;26371;56.992;23.912;2022-07-01T12:23:22;31.30;96.20
40153;DHT22;26371;56.992;23.912;2022-07-01T12:25:52;31.30;96.30
40153;DHT22;26371;56.992;23.912;2022-07-01T12:28:36;31.30;96.70
40153;DHT22;26371;56.992;23.912;2022-07-01T12:31:07;31.30;96.70
40153;DHT22;26371;56.992;23.912;2022-07-01T12:33:38;31.40;96.20
40153;DHT22;26371;56.992;23.912;2022-07-01T12:36:08;31.50;96.40
40153;DHT22;26371;56.992;23.912;2022-07-01T12:38:39;31.60;96.20
40153;DHT22;26371;56.992;23.912;2022-07-01T12:41:26;31.70;96.10
40153;DHT22;26371;56.992;23.912;2022-07-01T12:43:57;31.80;96.10
40153;DHT22;26371;56.992;23.912;2022-07-01T12:46:30;32.00;95.90
40153;DHT22;26371;56.992;23.912;2022-07-01T12:49:00;32.00;95.80
40153;DHT22;26371;56.992;23.912;2022-07-01T12:51:30;32.00;95.80
40153;DHT22;26371;56.992;23.912;2022-07-01T12:53:59;31.90;96.50
40153;DHT22;26371;56.992;23.912;2022-07-01T12:56:29;31.90;95.90
40153;DHT22;26371;56.992;23.912;2022-07-01T12:58:59;31.90;96.40
40153;DHT22;26371;56.992;23.912;2022-07-01T13:01:29;32.00;96.10
40153;DHT22;26371;56.992;23.912;2022-07-01T13:03:58;32.00;95.50
40153;DHT22;26371;56.992;23.912;2022-07-01T13:06:27;32.00;95.40
40153;DHT22;26371;56.992;23.912;2022-07-01T13:08:56;32.00;95.20
40153;DHT22;26371;56.992;23.912;2022-07-01T13:11:26;32.10;95.30
40153;DHT22;26371;56.992;23.912;2022-07-01T13:13:55;32.20;95.40
40153;DHT22;26371;56.992;23.912;2022-07-01T13:16:25;32.30;95.50
40153;DHT22;26371;56.992;23.912;2022-07-01T13:18:54;32.40;95.10
40153;DHT22;26371;56.992;23.912;2022-07-01T13:21:23;32.40;94.80
40153;DHT22;26371;56.992;23.912;2022-07-01T13:23:52;32.40;94.80
40153;DHT22;26371;56.992;23.912;2022-07-01T13:26:41;32.40;94.80
40153;DHT22;26371;56.992;23.912;2022-07-01T13:29:10;32.30;94.60
40153;DHT22;26371;56.992;23.912;2022-07-01T13:31:40;32.30;94.50
40153;DHT22;26371;56.992;23.912;2022-07-01T13:34:10;32.20;94.80
40153;DHT22;26371;56.992;23.912;2022-07-01T13:36:39;32.20;94.60
40153;DHT22;26371;56.992;23.912;2022-07-01T13:39:07;32.10;94.70
40153;DHT22;26371;56.992;23.912;2022-07-01T13:41:37;32.20;94.60
40153;DHT22;26371;56.992;23.912;2022-07-01T13:44:06;32.10;94.90
40153;DHT22;26371;56.992;23.912;2022-07-01T13:46:35;32.10;94.30
40153;DHT22;26371;56.992;23.912;2022-07-01T13:49:14;32.10;95.00
40153;DHT22;26371;56.992;23.912;2022-07-01T13:51:43;32.00;94.60
40153;DHT22;26371;56.992;23.912;2022-07-01T13:54:13;32.00;94.80
40153;DHT22;26371;56.992;23.912;2022-07-01T13:56:42;32.10;94.50
40153;DHT22;26371;56.992;23.912;2022-07-01T13:59:12;32.20;94.70
40153;DHT22;26371;56.992;23.912;2022-07-01T14:01:42;32.30;94.60
40153;DHT22;26371;56.992;23.912;2022-07-01T14:04:10;32.40;94.40
40153;DHT22;26371;56.992;23.912;2022-07-01T14:06:42;32.40;94.40
40153;DHT22;26371;56.992;23.912;2022-07-01T14:09:11;32.40;93.50
40153;DHT22;26371;56.992;23.912;2022-07-01T14:11:41;32.40;94.10
40153;DHT22;26371;56.992;23.912;2022-07-01T14:14:10;32.40;94.30
40153;DHT22;26371;56.992;23.912;2022-07-01T14:16:39;32.50;93.30
40153;DHT22;26371;56.992;23.912;2022-07-01T14:19:08;32.50;93.30
40153;DHT22;26371;56.992;23.912;2022-07-01T14:21:38;32.50;93.40
40153;DHT22;26371;56.992;23.912;2022-07-01T14:24:08;32.50;93.30
40153;DHT22;26371;56.992;23.912;2022-07-01T14:26:38;32.50;93.70
40153;DHT22;26371;56.992;23.912;2022-07-01T14:29:07;32.30;93.00
40153;DHT22;26371;56.992;23.912;2022-07-01T14:31:36;32.20;93.40
40153;DHT22;26371;56.992;23.912;2022-07-01T14:34:06;32.10;93.30
40153;DHT22;26371;56.992;23.912;2022-07-01T14:36:35;31.90;92.90
40153;DHT22;26371;56.992;23.912;2022-07-01T14:39:04;31.50;93.10
40153;DHT22;26371;56.992;23.912;2022-07-01T14:41:35;31.10;94.00
40153;DHT22;26371;56.992;23.912;2022-07-01T14:44:04;30.80;94.20
40153;DHT22;26371;56.992;23.912;2022-07-01T14:46:33;30.60;94.60
40153;DHT22;26371;56.992;23.912;2022-07-01T14:49:03;30.40;95.20
40153;DHT22;26371;56.992;23.912;2022-07-01T14:51:33;30.30;95.20
40153;DHT22;26371;56.992;23.912;2022-07-01T14:54:02;30.20;95.50
40153;DHT22;26371;56.992;23.912;2022-07-01T14:56:31;30.10;95.80
40153;DHT22;26371;56.992;23.912;2022-07-01T14:59:02;30.00;95.90
40153;DHT22;26371;56.992;23.912;2022-07-01T15:01:38;29.90;96.00
40153;DHT22;26371;56.992;23.912;2022-07-01T15:04:07;29.90;96.10
40153;DHT22;26371;56.992;23.912;2022-07-01T15:06:37;29.90;96.20
40153;DHT22;26371;56.992;23.912;2022-07-01T15:09:05;29.80;96.10
40153;DHT22;26371;56.992;23.912;2022-07-01T15:11:34;29.80;96.60
40153;DHT22;26371;56.992;23.912;2022-07-01T15:14:05;29.70;96.50
40153;DHT22;26371;56.992;23.912;2022-07-01T15:16:35;29.70;96.70
40153;DHT22;26371;56.992;23.912;2022-07-01T15:19:04;29.80;96.90
40153;DHT22;26371;56.992;23.912;2022-07-01T15:21:34;29.70;97.00
40153;DHT22;26371;56.992;23.912;2022-07-01T15:24:03;29.80;97.10
40153;DHT22;26371;56.992;23.912;2022-07-01T15:26:32;29.90;96.90
40153;DHT22;26371;56.992;23.912;2022-07-01T15:29:00;30.00;97.30
40153;DHT22;26371;56.992;23.912;2022-07-01T15:31:32;30.10;97.20
40153;DHT22;26371;56.992;23.912;2022-07-01T15:34:18;30.20;97.10
40153;DHT22;26371;56.992;23.912;2022-07-01T15:36:47;30.20;97.00
40153;DHT22;26371;56.992;23.912;2022-07-01T15:39:16;30.20;97.00
40153;DHT22;26371;56.992;23.912;2022-07-01T15:41:45;30.10;97.00
40153;DHT22;26371;56.992;23.912;2022-07-01T15:44:15;30.00;97.30